createdAt,value
2023-03-15T00:00:22.681Z,3.70
2023-03-15T00:02:49.635Z,3.70
2023-03-15T00:05:16.769Z,3.80
2023-03-15T00:07:43.749Z,3.60
2023-03-15T00:10:11.101Z,3.70
2023-03-15T00:12:38.017Z,3.60
2023-03-15T00:15:05.228Z,3.70
2023-03-15T00:17:34.852Z,3.50
2023-03-15T00:20:02.105Z,3.60
2023-03-15T00:22:29.002Z,3.60
2023-03-15T00:24:55.890Z,3.60
2023-03-15T00:27:22.820Z,3.50
2023-03-15T00:29:49.739Z,3.60
2023-03-15T00:32:16.723Z,3.60
2023-03-15T00:34:49.288Z,3.60
2023-03-15T00:37:17.041Z,3.60
2023-03-15T00:39:45.547Z,3.60
2023-03-15T00:42:15.680Z,3.60
2023-03-15T00:44:43.332Z,3.50
2023-03-15T00:47:11.226Z,3.60
2023-03-15T00:49:38.417Z,3.50
2023-03-15T00:52:06.719Z,3.50
2023-03-15T00:54:33.683Z,3.50
2023-03-15T00:57:01.698Z,3.40
2023-03-15T00:59:29.476Z,3.50
2023-03-15T01:01:56.414Z,3.40
2023-03-15T01:04:23.367Z,3.40
2023-03-15T01:06:51.485Z,3.40
2023-03-15T01:09:18.403Z,3.40
2023-03-15T01:11:45.425Z,3.40
2023-03-15T01:14:12.474Z,3.40
2023-03-15T01:16:39.417Z,3.30
2023-03-15T01:19:06.348Z,3.30
2023-03-15T01:21:33.372Z,3.30
2023-03-15T01:24:00.381Z,3.30
2023-03-15T01:26:27.302Z,3.30
2023-03-15T01:28:55.299Z,3.20
2023-03-15T01:31:23.646Z,3.10
2023-03-15T01:33:50.650Z,3.10
2023-03-15T01:36:18.031Z,3.20
2023-03-15T01:38:45.057Z,3.10
2023-03-15T01:41:13.325Z,3.10
2023-03-15T01:43:48.726Z,3.10
2023-03-15T01:46:19.987Z,3.00
2023-03-15T01:48:53.738Z,3.00
2023-03-15T01:51:25.730Z,3.10
2023-03-15T01:54:04.945Z,3.10
2023-03-15T01:56:34.852Z,3.10
2023-03-15T01:59:03.565Z,3.00
2023-03-15T02:01:31.334Z,2.90
2023-03-15T02:04:02.348Z,3.00
2023-03-15T02:06:35.053Z,3.10
2023-03-15T02:09:04.786Z,3.10
2023-03-15T02:11:35.619Z,3.00
2023-03-15T02:14:05.271Z,3.00
2023-03-15T02:16:33.805Z,3.00
2023-03-15T02:19:11.958Z,3.00
2023-03-15T02:21:45.027Z,2.90
2023-03-15T02:24:21.131Z,3.00
2023-03-15T02:26:55.345Z,3.00
2023-03-15T02:29:23.813Z,3.00
2023-03-15T02:31:51.496Z,2.90
2023-03-15T02:34:18.693Z,2.80
2023-03-15T02:36:45.609Z,2.90
2023-03-15T02:39:16.752Z,2.90
2023-03-15T02:41:47.813Z,2.90
2023-03-15T02:44:14.774Z,2.90
2023-03-15T02:46:42.785Z,2.80
2023-03-15T02:49:10.265Z,2.70
2023-03-15T02:51:37.260Z,2.70
2023-03-15T02:54:04.307Z,2.70
2023-03-15T02:56:33.644Z,2.80
2023-03-15T02:59:01.789Z,2.80
2023-03-15T03:01:29.489Z,2.80
2023-03-15T03:03:56.857Z,2.70
2023-03-15T03:06:24.740Z,2.70
2023-03-15T03:08:51.980Z,2.80
2023-03-15T03:11:20.408Z,2.80
2023-03-15T03:13:47.500Z,2.80
2023-03-15T03:16:14.656Z,2.80
2023-03-15T03:18:43.185Z,2.80
2023-03-15T03:21:10.506Z,2.70
2023-03-15T03:23:37.429Z,2.70
2023-03-15T03:26:04.577Z,2.70
2023-03-15T03:28:32.249Z,2.70
2023-03-15T03:31:01.107Z,2.60
2023-03-15T03:33:29.194Z,2.60
2023-03-15T03:36:02.262Z,2.60
2023-03-15T03:38:30.145Z,2.60
2023-03-15T03:41:00.320Z,2.60
2023-03-15T03:43:29.855Z,2.60
2023-03-15T03:45:56.914Z,2.60
2023-03-15T03:48:23.956Z,2.50
2023-03-15T03:50:50.940Z,2.40
2023-03-15T03:53:18.103Z,2.50
2023-03-15T03:55:46.538Z,2.50
2023-03-15T03:58:18.084Z,2.50
2023-03-15T04:00:54.392Z,2.50
2023-03-15T04:03:28.134Z,2.40
2023-03-15T04:06:06.009Z,2.50
2023-03-15T04:08:37.412Z,2.40
2023-03-15T04:11:06.039Z,2.40
2023-03-15T04:13:36.001Z,2.40
2023-03-15T04:16:04.179Z,2.40
2023-03-15T04:18:40.338Z,2.40
2023-03-15T04:21:10.980Z,2.30
2023-03-15T04:23:40.924Z,2.40
2023-03-15T04:26:16.212Z,2.40
2023-03-15T04:29:10.667Z,2.40
2023-03-15T04:31:38.398Z,2.30
2023-03-15T04:34:08.010Z,2.30
2023-03-15T04:36:45.191Z,2.20
2023-03-15T04:39:17.799Z,2.20
2023-03-15T04:41:55.174Z,2.20
2023-03-15T04:44:30.984Z,2.30
2023-03-15T04:47:24.336Z,2.30
2023-03-15T04:50:08.109Z,2.30
2023-03-15T04:52:55.338Z,2.30
2023-03-15T04:55:42.523Z,2.20
2023-03-15T04:58:21.425Z,2.20
2023-03-15T05:01:04.916Z,2.20
2023-03-15T05:03:58.251Z,2.20
2023-03-15T05:07:03.366Z,2.20
2023-03-15T05:09:51.226Z,2.20
2023-03-15T05:12:24.562Z,2.10
2023-03-15T05:14:57.094Z,2.10
2023-03-15T05:17:47.324Z,2.10
2023-03-15T05:20:22.369Z,2.10
2023-03-15T05:23:07.038Z,2.10
2023-03-15T05:25:34.542Z,2.10
2023-03-15T05:28:31.968Z,2.10
2023-03-15T05:31:17.366Z,2.10
2023-03-15T05:34:04.450Z,2.10
2023-03-15T05:36:38.213Z,2.10
2023-03-15T05:39:18.983Z,2.10
2023-03-15T05:42:08.858Z,2.10
2023-03-15T05:44:39.368Z,2.10
2023-03-15T05:47:06.442Z,2.10
2023-03-15T05:49:59.586Z,2.10
2023-03-15T05:52:37.918Z,2.00
2023-03-15T05:55:19.378Z,2.10
2023-03-15T05:58:22.268Z,2.10
2023-03-15T06:01:04.150Z,2.10
2023-03-15T06:04:00.426Z,2.10
2023-03-15T06:06:33.282Z,2.20
2023-03-15T06:09:01.625Z,2.10
2023-03-15T06:11:28.940Z,2.20
2023-03-15T06:13:56.293Z,2.10
2023-03-15T06:16:36.403Z,2.20
2023-03-15T06:19:04.471Z,2.20
2023-03-15T06:21:31.909Z,2.30
2023-03-15T06:23:59.740Z,2.20
2023-03-15T06:26:26.705Z,2.30
2023-03-15T06:28:58.852Z,2.30
2023-03-15T06:31:26.236Z,2.40
2023-03-15T06:34:01.744Z,2.50
2023-03-15T06:36:28.773Z,2.50
2023-03-15T06:38:55.844Z,2.50
2023-03-15T06:41:22.857Z,2.50
2023-03-15T06:43:57.145Z,2.50
2023-03-15T06:46:24.289Z,2.60
2023-03-15T06:48:51.371Z,2.70
2023-03-15T06:51:20.546Z,2.70
2023-03-15T06:53:47.493Z,2.80
2023-03-15T06:56:14.484Z,2.90
2023-03-15T06:58:41.372Z,2.90
2023-03-15T07:01:11.870Z,2.90
2023-03-15T07:03:38.809Z,2.90
2023-03-15T07:06:05.817Z,3.00
2023-03-15T07:08:32.817Z,3.00
2023-03-15T07:11:00.203Z,3.00
2023-03-15T07:13:27.164Z,3.10
2023-03-15T07:15:54.502Z,3.10
2023-03-15T07:18:22.220Z,3.10
2023-03-15T07:20:55.876Z,3.10
2023-03-15T07:23:22.932Z,3.10
2023-03-15T07:25:55.033Z,3.10
2023-03-15T07:28:23.559Z,3.20
2023-03-15T07:31:00.644Z,3.20
2023-03-15T07:33:28.402Z,3.10
2023-03-15T07:35:55.904Z,3.10
2023-03-15T07:38:23.840Z,3.10
2023-03-15T07:40:51.014Z,3.10
2023-03-15T07:43:18.235Z,3.10
2023-03-15T07:45:49.071Z,3.30
2023-03-15T07:48:16.081Z,3.40
2023-03-15T07:50:43.084Z,3.40
2023-03-15T07:53:10.013Z,3.40
2023-03-15T07:55:36.997Z,3.40
2023-03-15T07:58:04.431Z,3.50
2023-03-15T08:00:31.531Z,3.60
2023-03-15T08:02:58.968Z,3.80
2023-03-15T08:05:28.857Z,3.80
2023-03-15T08:07:56.832Z,3.80
2023-03-15T08:10:24.112Z,3.90
2023-03-15T08:12:51.013Z,3.90
2023-03-15T08:15:18.044Z,3.80
2023-03-15T08:18:00.402Z,3.80
2023-03-15T08:20:29.720Z,3.90
2023-03-15T08:22:57.005Z,4.00
2023-03-15T08:25:24.197Z,4.00
2023-03-15T08:27:51.501Z,3.90
2023-03-15T08:30:19.112Z,3.90
2023-03-15T08:32:47.107Z,3.90
2023-03-15T08:35:16.018Z,3.80
2023-03-15T08:37:47.129Z,3.90
2023-03-15T08:40:15.261Z,3.90
2023-03-15T08:42:42.252Z,3.90
2023-03-15T08:45:09.627Z,4.00
2023-03-15T08:47:37.192Z,4.10
2023-03-15T08:50:05.898Z,4.20
2023-03-15T08:52:32.773Z,4.20
2023-03-15T08:54:59.673Z,4.30
2023-03-15T08:57:26.736Z,4.40
2023-03-15T08:59:53.974Z,4.40
2023-03-15T09:02:22.671Z,4.50
2023-03-15T09:04:50.340Z,4.50
2023-03-15T09:07:18.381Z,4.60
2023-03-15T09:09:48.260Z,4.60
2023-03-15T09:12:18.362Z,4.60
2023-03-15T09:14:45.301Z,4.50
2023-03-15T09:17:12.325Z,4.60
2023-03-15T09:19:39.623Z,4.60
2023-03-15T09:22:16.515Z,4.60
2023-03-15T09:24:51.838Z,4.60
2023-03-15T09:27:19.024Z,4.50
2023-03-15T09:29:45.975Z,4.60
2023-03-15T09:32:13.453Z,4.60
2023-03-15T09:34:42.313Z,4.70
2023-03-15T09:37:09.799Z,4.70
2023-03-15T09:39:36.793Z,4.70
2023-03-15T09:42:09.047Z,4.90
2023-03-15T09:44:48.283Z,4.90
2023-03-15T09:47:24.422Z,4.90
2023-03-15T09:50:13.355Z,4.90
2023-03-15T09:52:40.311Z,4.90
2023-03-15T09:55:12.837Z,4.90
2023-03-15T09:57:39.840Z,4.90
2023-03-15T10:00:12.092Z,4.90
2023-03-15T10:02:42.540Z,4.90
2023-03-15T10:05:16.466Z,5.00
2023-03-15T10:07:43.497Z,5.10
2023-03-15T10:10:22.163Z,5.10
2023-03-15T10:12:53.288Z,5.20
2023-03-15T10:15:23.179Z,5.30
2023-03-15T10:17:59.380Z,5.40
2023-03-15T10:20:34.301Z,5.50
2023-03-15T10:23:13.409Z,5.50
2023-03-15T10:25:41.166Z,5.50
2023-03-15T10:28:08.064Z,5.50
2023-03-15T10:30:36.803Z,5.50
2023-03-15T10:33:06.728Z,5.60
2023-03-15T10:35:33.933Z,5.50
2023-03-15T10:38:02.737Z,5.70
2023-03-15T10:40:46.549Z,5.70
2023-03-15T10:43:35.626Z,5.70
2023-03-15T10:46:03.896Z,5.90
2023-03-15T10:48:32.318Z,5.90
2023-03-15T10:51:16.893Z,6.00
2023-03-15T10:54:00.926Z,6.00
2023-03-15T10:56:30.964Z,6.00
2023-03-15T10:59:11.450Z,6.20
2023-03-15T11:01:39.166Z,6.40
2023-03-15T11:04:09.156Z,6.30
2023-03-15T11:06:43.989Z,6.30
2023-03-15T11:09:12.760Z,6.30
2023-03-15T11:11:57.949Z,6.30
2023-03-15T11:14:25.236Z,6.30
2023-03-15T11:16:54.824Z,6.30
2023-03-15T11:19:23.508Z,6.30
2023-03-15T11:21:51.476Z,6.30
2023-03-15T11:24:44.734Z,6.40
2023-03-15T11:27:14.076Z,6.50
2023-03-15T11:29:43.964Z,6.50
2023-03-15T11:32:16.368Z,6.60
2023-03-15T11:34:51.170Z,6.70
2023-03-15T11:37:23.240Z,6.90
2023-03-15T11:40:10.379Z,7.00
2023-03-15T11:42:48.363Z,7.20
2023-03-15T11:45:21.197Z,7.10
2023-03-15T11:47:56.776Z,7.10
2023-03-15T11:50:23.780Z,7.10
2023-03-15T11:52:51.272Z,7.10
2023-03-15T11:55:20.175Z,7.30
2023-03-15T11:57:48.279Z,7.50
2023-03-15T12:00:18.562Z,7.50
2023-03-15T12:02:49.136Z,7.60
2023-03-15T12:05:34.998Z,7.70
2023-03-15T12:08:20.369Z,7.80
2023-03-15T12:10:48.304Z,7.60
2023-03-15T12:13:19.985Z,7.50
2023-03-15T12:15:47.830Z,7.30
2023-03-15T12:18:16.361Z,7.30
2023-03-15T12:20:49.425Z,7.20
2023-03-15T12:23:19.464Z,7.20
2023-03-15T12:25:58.703Z,7.10
2023-03-15T12:28:31.722Z,7.10
2023-03-15T12:31:01.849Z,7.10
2023-03-15T12:33:31.646Z,7.10
2023-03-15T12:36:02.050Z,7.20
2023-03-15T12:38:35.705Z,7.20
2023-03-15T12:41:06.396Z,7.30
2023-03-15T12:43:43.511Z,7.30
2023-03-15T12:46:30.730Z,7.40
2023-03-15T12:49:06.913Z,7.30
2023-03-15T12:51:45.202Z,7.40
2023-03-15T12:54:14.327Z,7.20
2023-03-15T12:56:43.772Z,7.00
2023-03-15T12:59:29.611Z,7.00
2023-03-15T13:01:57.403Z,6.90
2023-03-15T13:04:26.302Z,6.90
2023-03-15T13:07:13.415Z,7.10
2023-03-15T13:09:47.813Z,7.30
2023-03-15T13:12:20.988Z,7.50
2023-03-15T13:14:50.999Z,7.50
2023-03-15T13:17:36.205Z,7.40
2023-03-15T13:20:13.823Z,7.30
2023-03-15T13:22:54.894Z,7.30
2023-03-15T13:25:51.372Z,7.30
2023-03-15T13:28:22.648Z,7.40
2023-03-15T13:30:52.610Z,7.50
2023-03-15T13:33:24.616Z,7.40
2023-03-15T13:36:05.971Z,7.40
2023-03-15T13:38:33.001Z,7.40
2023-03-15T13:41:02.106Z,7.40
2023-03-15T13:43:30.382Z,7.60
2023-03-15T13:45:58.249Z,7.70
2023-03-15T13:48:32.962Z,7.50
2023-03-15T13:51:03.937Z,7.50
2023-03-15T13:53:48.255Z,7.50
2023-03-15T13:56:17.883Z,7.50
2023-03-15T13:58:45.239Z,7.60
2023-03-15T14:01:12.949Z,7.50
2023-03-15T14:03:44.017Z,7.50
2023-03-15T14:06:20.865Z,7.40
2023-03-15T14:08:49.710Z,7.40
2023-03-15T14:11:16.867Z,7.30
2023-03-15T14:13:46.801Z,7.10
2023-03-15T14:16:32.587Z,7.10
2023-03-15T14:19:16.950Z,7.10
2023-03-15T14:21:44.780Z,7.10
2023-03-15T14:24:22.704Z,7.10
2023-03-15T14:27:00.411Z,7.20
2023-03-15T14:29:32.281Z,7.10
2023-03-15T14:32:01.429Z,7.00
2023-03-15T14:34:33.752Z,7.00
2023-03-15T14:37:04.482Z,7.00
2023-03-15T14:39:38.098Z,7.20
2023-03-15T14:42:05.415Z,7.50
2023-03-15T14:44:34.314Z,7.70
2023-03-15T14:47:01.800Z,7.70
2023-03-15T14:49:28.996Z,7.80
2023-03-15T14:52:01.736Z,7.80
2023-03-15T14:54:29.817Z,7.80
2023-03-15T14:56:56.804Z,7.60
2023-03-15T14:59:23.937Z,7.50
2023-03-15T15:01:52.919Z,7.60
2023-03-15T15:04:20.385Z,7.50
2023-03-15T15:06:56.853Z,7.50
2023-03-15T15:09:24.885Z,7.30
2023-03-15T15:11:52.431Z,7.00
2023-03-15T15:14:19.844Z,7.00
2023-03-15T15:16:46.938Z,7.00
2023-03-15T15:19:14.172Z,7.00
2023-03-15T15:21:41.320Z,7.00
2023-03-15T15:24:18.873Z,6.90
2023-03-15T15:26:45.893Z,6.70
2023-03-15T15:29:16.756Z,6.60
2023-03-15T15:31:44.580Z,6.40
2023-03-15T15:34:12.519Z,6.40
2023-03-15T15:36:41.068Z,6.40
2023-03-15T15:39:16.281Z,6.20
2023-03-15T15:41:46.274Z,6.20
2023-03-15T15:44:16.211Z,6.20
2023-03-15T15:46:43.253Z,6.30
2023-03-15T15:49:13.528Z,6.30
2023-03-15T15:51:42.904Z,6.30
2023-03-15T15:54:13.999Z,6.20
2023-03-15T15:56:44.446Z,6.20
2023-03-15T15:59:13.821Z,6.10
2023-03-15T16:01:56.686Z,6.00
2023-03-15T16:04:26.369Z,5.80
2023-03-15T16:06:58.807Z,5.70
2023-03-15T16:09:26.798Z,5.60
2023-03-15T16:11:53.979Z,5.60
2023-03-15T16:14:20.961Z,5.50
2023-03-15T16:16:48.689Z,5.50
2023-03-15T16:19:15.732Z,5.40
2023-03-15T16:21:44.344Z,5.40
2023-03-15T16:24:20.225Z,5.30
2023-03-15T16:26:48.400Z,5.30
2023-03-15T16:29:23.130Z,5.20
2023-03-15T16:31:51.087Z,5.20
2023-03-15T16:34:18.901Z,5.10
2023-03-15T16:36:49.173Z,5.10
2023-03-15T16:39:16.877Z,5.00
2023-03-15T16:41:43.782Z,5.00
2023-03-15T16:44:11.981Z,4.90
2023-03-15T16:46:39.057Z,4.90
2023-03-15T16:49:06.147Z,4.90
2023-03-15T16:51:33.089Z,4.80
2023-03-15T16:54:15.061Z,4.70
2023-03-15T16:56:45.591Z,4.60
2023-03-15T16:59:16.813Z,4.60
2023-03-15T17:01:44.664Z,4.50
2023-03-15T17:04:12.448Z,4.40
2023-03-15T17:06:39.505Z,4.40
2023-03-15T17:09:12.292Z,4.40
2023-03-15T17:11:39.980Z,4.30
2023-03-15T17:14:07.645Z,4.30
2023-03-15T17:16:34.605Z,4.30
2023-03-15T17:19:01.662Z,4.20
2023-03-15T17:21:29.411Z,4.20
2023-03-15T17:23:56.334Z,4.10
2023-03-15T17:26:24.316Z,4.00
2023-03-15T17:28:51.698Z,3.90
2023-03-15T17:31:24.935Z,3.80
2023-03-15T17:33:52.533Z,3.80
2023-03-15T17:36:21.380Z,3.70
2023-03-15T17:38:48.953Z,3.60
2023-03-15T17:41:24.452Z,3.70
2023-03-15T17:43:51.658Z,3.70
2023-03-15T17:46:19.376Z,3.70
2023-03-15T17:48:47.008Z,3.70
2023-03-15T17:51:16.901Z,3.70
2023-03-15T17:53:43.827Z,3.80
2023-03-15T17:56:11.916Z,3.80
2023-03-15T17:58:39.338Z,3.70
2023-03-15T18:01:13.235Z,3.80
2023-03-15T18:03:41.271Z,3.70
2023-03-15T18:06:08.549Z,3.70
2023-03-15T18:08:35.452Z,3.60
2023-03-15T18:11:02.414Z,3.60
2023-03-15T18:13:30.044Z,3.50
2023-03-15T18:15:57.150Z,3.40
2023-03-15T18:18:24.104Z,3.30
2023-03-15T18:20:51.044Z,3.20
2023-03-15T18:23:18.469Z,3.20
2023-03-15T18:25:45.443Z,3.10
2023-03-15T18:28:12.559Z,3.00
2023-03-15T18:30:39.482Z,3.00
2023-03-15T18:33:06.918Z,2.90
2023-03-15T18:35:35.057Z,2.90
2023-03-15T18:38:02.333Z,2.80
2023-03-15T18:40:30.186Z,2.70
2023-03-15T18:42:58.038Z,2.70
2023-03-15T18:45:26.142Z,2.60
2023-03-15T18:47:53.114Z,2.60
2023-03-15T18:50:20.161Z,2.50
2023-03-15T18:52:47.452Z,2.50
2023-03-15T18:55:16.116Z,2.40
2023-03-15T18:57:43.222Z,2.40
2023-03-15T19:00:14.228Z,2.30
2023-03-15T19:02:42.038Z,2.30
2023-03-15T19:05:09.599Z,2.20
2023-03-15T19:07:37.739Z,2.20
2023-03-15T19:10:05.773Z,2.20
2023-03-15T19:12:32.818Z,2.20
2023-03-15T19:15:00.045Z,2.10
2023-03-15T19:17:27.009Z,2.10
2023-03-15T19:19:53.945Z,2.10
2023-03-15T19:22:20.880Z,2.00
2023-03-15T19:24:47.923Z,2.00
2023-03-15T19:27:15.305Z,2.10
2023-03-15T19:29:42.207Z,2.00
2023-03-15T19:32:09.316Z,2.00
2023-03-15T19:34:36.194Z,1.90
2023-03-15T19:37:03.456Z,1.90
2023-03-15T19:39:30.750Z,1.90
2023-03-15T19:41:57.677Z,1.80
2023-03-15T19:44:24.729Z,1.80
2023-03-15T19:46:52.257Z,1.70
2023-03-15T19:49:19.220Z,1.70
2023-03-15T19:51:46.090Z,1.60
2023-03-15T19:54:13.022Z,1.60
2023-03-15T19:56:39.973Z,1.60
2023-03-15T19:59:06.950Z,1.50
2023-03-15T20:01:34.011Z,1.50
2023-03-15T20:04:00.976Z,1.50
2023-03-15T20:06:27.902Z,1.40
2023-03-15T20:08:54.861Z,1.40
2023-03-15T20:11:25.289Z,1.40
2023-03-15T20:13:52.937Z,1.40
2023-03-15T20:16:20.780Z,1.30
2023-03-15T20:18:51.187Z,1.30
2023-03-15T20:21:18.707Z,1.20
2023-03-15T20:23:45.607Z,1.20
2023-03-15T20:26:13.432Z,1.20
2023-03-15T20:28:41.450Z,1.20
2023-03-15T20:31:09.936Z,1.10
2023-03-15T20:33:37.028Z,1.10
2023-03-15T20:36:04.527Z,1.10
2023-03-15T20:38:34.397Z,1.00
2023-03-15T20:41:01.438Z,1.00
2023-03-15T20:43:28.342Z,1.00
2023-03-15T20:45:56.185Z,1.00
2023-03-15T20:48:24.864Z,1.00
2023-03-15T20:50:54.812Z,0.90
2023-03-15T20:53:21.752Z,0.90
2023-03-15T20:55:48.677Z,0.80
2023-03-15T20:58:15.696Z,0.80
2023-03-15T21:00:44.680Z,0.80
2023-03-15T21:03:12.810Z,0.80
2023-03-15T21:05:44.448Z,0.80
2023-03-15T21:08:11.855Z,0.80
2023-03-15T21:10:38.832Z,0.70
2023-03-15T21:13:10.105Z,0.70
2023-03-15T21:15:45.963Z,0.70
2023-03-15T21:18:17.005Z,0.70
2023-03-15T21:20:44.423Z,0.70
2023-03-15T21:23:11.431Z,0.70
2023-03-15T21:25:38.528Z,0.70
2023-03-15T21:28:05.572Z,0.60
2023-03-15T21:30:33.108Z,0.70
2023-03-15T21:33:00.339Z,0.70
2023-03-15T21:35:27.364Z,0.70
2023-03-15T21:37:54.312Z,0.70
2023-03-15T21:40:21.544Z,0.50
2023-03-15T21:42:48.700Z,0.50
2023-03-15T21:45:16.404Z,0.50
2023-03-15T21:47:46.026Z,0.50
2023-03-15T21:50:13.020Z,0.50
2023-03-15T21:52:40.139Z,0.50
2023-03-15T21:55:07.945Z,0.60
2023-03-15T21:57:34.963Z,0.60
2023-03-15T22:00:02.780Z,0.50
2023-03-15T22:02:39.130Z,0.50
2023-03-15T22:05:06.227Z,0.50
2023-03-15T22:07:33.465Z,0.50
2023-03-15T22:10:00.385Z,0.50
2023-03-15T22:12:27.289Z,0.50
2023-03-15T22:15:04.724Z,0.40
2023-03-15T22:17:32.487Z,0.40
2023-03-15T22:19:59.425Z,0.30
2023-03-15T22:22:26.796Z,0.30
2023-03-15T22:24:53.809Z,0.30
2023-03-15T22:27:20.725Z,0.20
2023-03-15T22:29:47.686Z,0.20
2023-03-15T22:32:14.697Z,0.20
2023-03-15T22:34:41.766Z,0.10
2023-03-15T22:37:08.674Z,0.20
2023-03-15T22:39:35.997Z,0.10
2023-03-15T22:42:03.014Z,0.10
2023-03-15T22:44:30.613Z,0.10
2023-03-15T22:46:57.606Z,0.00
2023-03-15T22:49:24.489Z,0.00
2023-03-15T22:51:51.490Z,0.00
2023-03-15T22:54:18.428Z,-0.10
2023-03-15T22:56:45.603Z,0.00
2023-03-15T22:59:12.492Z,0.00
2023-03-15T23:01:39.881Z,0.00
2023-03-15T23:04:06.870Z,-0.10
2023-03-15T23:06:33.862Z,-0.10
2023-03-15T23:09:01.047Z,-0.10
2023-03-15T23:11:28.002Z,-0.10
2023-03-15T23:13:54.940Z,-0.10
2023-03-15T23:16:23.638Z,-0.20
2023-03-15T23:18:52.019Z,-0.20
2023-03-15T23:21:19.038Z,-0.10
2023-03-15T23:23:46.022Z,-0.20
2023-03-15T23:26:15.312Z,-0.20
2023-03-15T23:28:42.503Z,-0.20
2023-03-15T23:31:09.458Z,-0.20
2023-03-15T23:33:36.471Z,-0.20
2023-03-15T23:36:07.227Z,-0.30
2023-03-15T23:38:34.897Z,-0.30
2023-03-15T23:41:02.417Z,-0.30
2023-03-15T23:43:29.286Z,-0.30
2023-03-15T23:45:57.040Z,-0.40
2023-03-15T23:48:24.184Z,-0.30
2023-03-15T23:50:54.901Z,-0.30
2023-03-15T23:53:22.365Z,-0.40
2023-03-15T23:55:49.314Z,-0.40
2023-03-15T23:58:16.202Z,-0.40
